sensor_id;sensor_type;location;lat;lon;timestamp;P1;durP1;ratioP1;P2;durP2;ratioP2
17604;SDS011;8921;50.964;6.800;2023-08-06T00:00:53;5.53;;;3.50;;
17604;SDS011;8921;50.964;6.800;2023-08-06T00:03:22;8.03;;;5.40;;
17604;SDS011;8921;50.964;6.800;2023-08-06T00:05:50;5.87;;;3.60;;
17604;SDS011;8921;50.964;6.800;2023-08-06T00:08:18;7.03;;;3.40;;
17604;SDS011;8921;50.964;6.800;2023-08-06T00:10:47;7.90;;;3.63;;
17604;SDS011;8921;50.964;6.800;2023-08-06T00:13:15;6.33;;;3.53;;
17604;SDS011;8921;50.964;6.800;2023-08-06T00:15:43;7.17;;;3.53;;
17604;SDS011;8921;50.964;6.800;2023-08-06T00:18:11;12.80;;;3.80;;
17604;SDS011;8921;50.964;6.800;2023-08-06T00:20:39;8.10;;;4.30;;
17604;SDS011;8921;50.964;6.800;2023-08-06T00:23:08;9.77;;;3.73;;
17604;SDS011;8921;50.964;6.800;2023-08-06T00:25:36;5.73;;;3.40;;
17604;SDS011;8921;50.964;6.800;2023-08-06T00:28:04;10.53;;;4.27;;
17604;SDS011;8921;50.964;6.800;2023-08-06T00:30:33;7.17;;;3.87;;
17604;SDS011;8921;50.964;6.800;2023-08-06T00:33:01;8.20;;;3.90;;
17604;SDS011;8921;50.964;6.800;2023-08-06T00:35:29;9.70;;;3.37;;
17604;SDS011;8921;50.964;6.800;2023-08-06T00:37:57;6.90;;;3.40;;
17604;SDS011;8921;50.964;6.800;2023-08-06T00:40:26;6.10;;;3.37;;
17604;SDS011;8921;50.964;6.800;2023-08-06T00:42:54;6.20;;;3.33;;
17604;SDS011;8921;50.964;6.800;2023-08-06T00:45:22;5.77;;;3.27;;
17604;SDS011;8921;50.964;6.800;2023-08-06T00:47:50;8.30;;;3.97;;
17604;SDS011;8921;50.964;6.800;2023-08-06T00:50:19;6.30;;;2.67;;
17604;SDS011;8921;50.964;6.800;2023-08-06T00:52:47;6.13;;;3.33;;
17604;SDS011;8921;50.964;6.800;2023-08-06T00:55:15;8.60;;;3.90;;
17604;SDS011;8921;50.964;6.800;2023-08-06T00:57:43;6.80;;;2.90;;
17604;SDS011;8921;50.964;6.800;2023-08-06T01:00:12;6.07;;;2.93;;
17604;SDS011;8921;50.964;6.800;2023-08-06T01:02:40;5.67;;;2.90;;
17604;SDS011;8921;50.964;6.800;2023-08-06T01:05:08;8.43;;;3.27;;
17604;SDS011;8921;50.964;6.800;2023-08-06T01:07:40;7.00;;;3.23;;
17604;SDS011;8921;50.964;6.800;2023-08-06T01:10:26;7.97;;;3.10;;
17604;SDS011;8921;50.964;6.800;2023-08-06T01:13:17;10.90;;;3.70;;
17604;SDS011;8921;50.964;6.800;2023-08-06T01:16:03;6.93;;;3.40;;
17604;SDS011;8921;50.964;6.800;2023-08-06T01:18:34;5.80;;;3.13;;
17604;SDS011;8921;50.964;6.800;2023-08-06T01:21:02;6.20;;;3.00;;
17604;SDS011;8921;50.964;6.800;2023-08-06T01:23:31;7.40;;;3.13;;
17604;SDS011;8921;50.964;6.800;2023-08-06T01:26:07;5.90;;;3.17;;
17604;SDS011;8921;50.964;6.800;2023-08-06T01:31:20;6.80;;;3.40;;
17604;SDS011;8921;50.964;6.800;2023-08-06T01:33:47;7.20;;;2.80;;
17604;SDS011;8921;50.964;6.800;2023-08-06T01:36:16;5.53;;;3.03;;
17604;SDS011;8921;50.964;6.800;2023-08-06T01:38:44;5.43;;;2.77;;
17604;SDS011;8921;50.964;6.800;2023-08-06T01:41:12;6.33;;;2.60;;
17604;SDS011;8921;50.964;6.800;2023-08-06T01:43:40;4.90;;;2.87;;
17604;SDS011;8921;50.964;6.800;2023-08-06T01:46:09;5.53;;;3.30;;
17604;SDS011;8921;50.964;6.800;2023-08-06T01:48:37;6.80;;;3.40;;
17604;SDS011;8921;50.964;6.800;2023-08-06T01:51:05;7.10;;;3.20;;
17604;SDS011;8921;50.964;6.800;2023-08-06T01:53:33;13.13;;;3.57;;
17604;SDS011;8921;50.964;6.800;2023-08-06T01:56:02;6.40;;;2.63;;
17604;SDS011;8921;50.964;6.800;2023-08-06T01:58:30;5.90;;;3.30;;
17604;SDS011;8921;50.964;6.800;2023-08-06T02:00:58;10.03;;;3.03;;
17604;SDS011;8921;50.964;6.800;2023-08-06T02:03:26;8.20;;;3.60;;
17604;SDS011;8921;50.964;6.800;2023-08-06T02:05:55;5.27;;;2.77;;
17604;SDS011;8921;50.964;6.800;2023-08-06T02:08:23;7.10;;;2.93;;
17604;SDS011;8921;50.964;6.800;2023-08-06T02:10:51;5.23;;;3.03;;
17604;SDS011;8921;50.964;6.800;2023-08-06T02:13:19;7.30;;;3.23;;
17604;SDS011;8921;50.964;6.800;2023-08-06T02:15:48;5.73;;;2.73;;
17604;SDS011;8921;50.964;6.800;2023-08-06T02:18:16;5.00;;;2.47;;
17604;SDS011;8921;50.964;6.800;2023-08-06T02:20:54;6.40;;;3.20;;
17604;SDS011;8921;50.964;6.800;2023-08-06T02:23:12;6.37;;;2.80;;
17604;SDS011;8921;50.964;6.800;2023-08-06T02:25:41;5.87;;;2.80;;
17604;SDS011;8921;50.964;6.800;2023-08-06T02:28:09;7.10;;;2.63;;
17604;SDS011;8921;50.964;6.800;2023-08-06T02:30:37;5.37;;;2.60;;
17604;SDS011;8921;50.964;6.800;2023-08-06T02:33:06;9.03;;;3.07;;
17604;SDS011;8921;50.964;6.800;2023-08-06T02:35:34;8.27;;;2.90;;
17604;SDS011;8921;50.964;6.800;2023-08-06T02:38:02;6.93;;;3.37;;
17604;SDS011;8921;50.964;6.800;2023-08-06T02:40:30;11.37;;;2.90;;
17604;SDS011;8921;50.964;6.800;2023-08-06T02:42:59;6.93;;;3.10;;
17604;SDS011;8921;50.964;6.800;2023-08-06T02:45:27;5.67;;;2.60;;
17604;SDS011;8921;50.964;6.800;2023-08-06T02:47:55;6.03;;;2.70;;
17604;SDS011;8921;50.964;6.800;2023-08-06T02:50:23;6.03;;;4.27;;
17604;SDS011;8921;50.964;6.800;2023-08-06T02:52:52;7.93;;;2.53;;
17604;SDS011;8921;50.964;6.800;2023-08-06T02:55:20;7.23;;;3.00;;
17604;SDS011;8921;50.964;6.800;2023-08-06T02:57:48;9.57;;;3.03;;
17604;SDS011;8921;50.964;6.800;2023-08-06T03:00:16;5.67;;;3.30;;
17604;SDS011;8921;50.964;6.800;2023-08-06T03:02:45;5.73;;;2.90;;
17604;SDS011;8921;50.964;6.800;2023-08-06T03:05:13;6.43;;;2.83;;
17604;SDS011;8921;50.964;6.800;2023-08-06T03:07:41;8.77;;;3.57;;
17604;SDS011;8921;50.964;6.800;2023-08-06T03:10:10;6.20;;;2.70;;
17604;SDS011;8921;50.964;6.800;2023-08-06T03:12:38;5.90;;;2.60;;
17604;SDS011;8921;50.964;6.800;2023-08-06T03:15:06;6.13;;;2.60;;
17604;SDS011;8921;50.964;6.800;2023-08-06T03:17:35;5.80;;;2.53;;
17604;SDS011;8921;50.964;6.800;2023-08-06T03:20:03;7.17;;;3.00;;
17604;SDS011;8921;50.964;6.800;2023-08-06T03:22:32;5.63;;;2.73;;
17604;SDS011;8921;50.964;6.800;2023-08-06T03:25:00;12.10;;;3.20;;
17604;SDS011;8921;50.964;6.800;2023-08-06T03:27:28;9.10;;;2.83;;
17604;SDS011;8921;50.964;6.800;2023-08-06T03:29:56;5.60;;;2.80;;
17604;SDS011;8921;50.964;6.800;2023-08-06T03:32:25;5.10;;;2.70;;
17604;SDS011;8921;50.964;6.800;2023-08-06T03:34:53;12.23;;;3.53;;
17604;SDS011;8921;50.964;6.800;2023-08-06T03:37:21;6.27;;;2.70;;
17604;SDS011;8921;50.964;6.800;2023-08-06T03:39:49;5.40;;;2.87;;
17604;SDS011;8921;50.964;6.800;2023-08-06T03:42:18;7.20;;;2.80;;
17604;SDS011;8921;50.964;6.800;2023-08-06T03:44:46;6.80;;;3.27;;
17604;SDS011;8921;50.964;6.800;2023-08-06T03:47:14;5.57;;;2.93;;
17604;SDS011;8921;50.964;6.800;2023-08-06T03:49:42;5.40;;;2.40;;
17604;SDS011;8921;50.964;6.800;2023-08-06T03:52:11;6.10;;;3.10;;
17604;SDS011;8921;50.964;6.800;2023-08-06T03:54:39;10.03;;;3.10;;
17604;SDS011;8921;50.964;6.800;2023-08-06T03:57:07;6.60;;;3.00;;
17604;SDS011;8921;50.964;6.800;2023-08-06T03:59:35;10.80;;;3.40;;
17604;SDS011;8921;50.964;6.800;2023-08-06T04:02:04;6.13;;;2.87;;
17604;SDS011;8921;50.964;6.800;2023-08-06T04:04:32;8.67;;;3.53;;
17604;SDS011;8921;50.964;6.800;2023-08-06T04:07:00;7.33;;;2.93;;
17604;SDS011;8921;50.964;6.800;2023-08-06T04:09:29;7.90;;;3.33;;
17604;SDS011;8921;50.964;6.800;2023-08-06T04:11:57;5.93;;;3.10;;
17604;SDS011;8921;50.964;6.800;2023-08-06T04:14:28;5.37;;;3.00;;
17604;SDS011;8921;50.964;6.800;2023-08-06T04:16:56;8.73;;;3.53;;
17604;SDS011;8921;50.964;6.800;2023-08-06T04:19:24;9.10;;;2.93;;
17604;SDS011;8921;50.964;6.800;2023-08-06T04:21:53;7.00;;;3.30;;
17604;SDS011;8921;50.964;6.800;2023-08-06T04:24:21;6.00;;;3.63;;
17604;SDS011;8921;50.964;6.800;2023-08-06T04:26:49;9.03;;;3.60;;
17604;SDS011;8921;50.964;6.800;2023-08-06T04:29:18;7.20;;;3.50;;
17604;SDS011;8921;50.964;6.800;2023-08-06T04:31:46;7.20;;;3.20;;
17604;SDS011;8921;50.964;6.800;2023-08-06T04:34:14;7.53;;;4.20;;
17604;SDS011;8921;50.964;6.800;2023-08-06T04:36:42;8.60;;;3.77;;
17604;SDS011;8921;50.964;6.800;2023-08-06T04:39:11;9.33;;;4.93;;
17604;SDS011;8921;50.964;6.800;2023-08-06T04:41:39;9.67;;;5.07;;
17604;SDS011;8921;50.964;6.800;2023-08-06T04:44:07;8.27;;;3.87;;
17604;SDS011;8921;50.964;6.800;2023-08-06T04:46:35;7.67;;;3.90;;
17604;SDS011;8921;50.964;6.800;2023-08-06T04:49:04;6.67;;;3.90;;
17604;SDS011;8921;50.964;6.800;2023-08-06T04:51:32;6.23;;;3.63;;
17604;SDS011;8921;50.964;6.800;2023-08-06T04:54:00;5.90;;;3.53;;
17604;SDS011;8921;50.964;6.800;2023-08-06T04:56:28;10.93;;;3.77;;
17604;SDS011;8921;50.964;6.800;2023-08-06T04:58:57;12.43;;;3.97;;
17604;SDS011;8921;50.964;6.800;2023-08-06T05:01:25;12.73;;;4.70;;
17604;SDS011;8921;50.964;6.800;2023-08-06T05:03:53;6.70;;;3.40;;
17604;SDS011;8921;50.964;6.800;2023-08-06T05:06:22;10.70;;;6.20;;
17604;SDS011;8921;50.964;6.800;2023-08-06T05:08:50;9.70;;;4.00;;
17604;SDS011;8921;50.964;6.800;2023-08-06T05:11:18;10.03;;;4.50;;
17604;SDS011;8921;50.964;6.800;2023-08-06T05:13:46;8.90;;;4.30;;
17604;SDS011;8921;50.964;6.800;2023-08-06T05:16:15;10.63;;;5.87;;
17604;SDS011;8921;50.964;6.800;2023-08-06T05:18:43;10.80;;;5.53;;
17604;SDS011;8921;50.964;6.800;2023-08-06T05:21:11;7.73;;;3.80;;
17604;SDS011;8921;50.964;6.800;2023-08-06T05:23:39;8.47;;;3.70;;
17604;SDS011;8921;50.964;6.800;2023-08-06T05:26:08;9.00;;;3.80;;
17604;SDS011;8921;50.964;6.800;2023-08-06T05:28:36;20.57;;;12.10;;
17604;SDS011;8921;50.964;6.800;2023-08-06T05:31:04;8.70;;;3.70;;
17604;SDS011;8921;50.964;6.800;2023-08-06T05:33:32;7.87;;;3.83;;
17604;SDS011;8921;50.964;6.800;2023-08-06T05:36:01;5.30;;;3.20;;
17604;SDS011;8921;50.964;6.800;2023-08-06T05:38:29;7.67;;;3.67;;
17604;SDS011;8921;50.964;6.800;2023-08-06T05:40:57;9.53;;;4.03;;
17604;SDS011;8921;50.964;6.800;2023-08-06T05:43:25;6.77;;;3.20;;
17604;SDS011;8921;50.964;6.800;2023-08-06T05:45:54;6.70;;;3.40;;
17604;SDS011;8921;50.964;6.800;2023-08-06T05:48:22;7.50;;;3.60;;
17604;SDS011;8921;50.964;6.800;2023-08-06T05:50:51;6.47;;;3.47;;
17604;SDS011;8921;50.964;6.800;2023-08-06T05:53:19;11.20;;;3.67;;
17604;SDS011;8921;50.964;6.800;2023-08-06T05:55:47;7.27;;;3.87;;
17604;SDS011;8921;50.964;6.800;2023-08-06T05:58:15;6.80;;;3.47;;
17604;SDS011;8921;50.964;6.800;2023-08-06T06:00:43;5.80;;;3.23;;
17604;SDS011;8921;50.964;6.800;2023-08-06T06:03:12;5.73;;;3.60;;
17604;SDS011;8921;50.964;6.800;2023-08-06T06:05:40;6.47;;;2.97;;
17604;SDS011;8921;50.964;6.800;2023-08-06T06:08:08;6.47;;;3.50;;
17604;SDS011;8921;50.964;6.800;2023-08-06T06:10:36;5.50;;;2.83;;
17604;SDS011;8921;50.964;6.800;2023-08-06T06:13:05;12.40;;;3.00;;
17604;SDS011;8921;50.964;6.800;2023-08-06T06:15:33;8.13;;;3.60;;
17604;SDS011;8921;50.964;6.800;2023-08-06T06:18:01;6.50;;;3.73;;
17604;SDS011;8921;50.964;6.800;2023-08-06T06:20:31;6.43;;;3.40;;
17604;SDS011;8921;50.964;6.800;2023-08-06T06:22:58;7.17;;;3.63;;
17604;SDS011;8921;50.964;6.800;2023-08-06T06:25:26;6.03;;;3.50;;
17604;SDS011;8921;50.964;6.800;2023-08-06T06:27:54;8.13;;;3.90;;
17604;SDS011;8921;50.964;6.800;2023-08-06T06:30:22;6.37;;;3.83;;
17604;SDS011;8921;50.964;6.800;2023-08-06T06:32:51;6.47;;;3.50;;
17604;SDS011;8921;50.964;6.800;2023-08-06T06:35:19;6.60;;;3.30;;
17604;SDS011;8921;50.964;6.800;2023-08-06T06:37:47;8.43;;;3.50;;
17604;SDS011;8921;50.964;6.800;2023-08-06T06:40:16;6.40;;;4.37;;
17604;SDS011;8921;50.964;6.800;2023-08-06T06:42:44;9.67;;;5.77;;
17604;SDS011;8921;50.964;6.800;2023-08-06T06:45:12;7.53;;;3.83;;
17604;SDS011;8921;50.964;6.800;2023-08-06T06:47:40;5.43;;;2.73;;
17604;SDS011;8921;50.964;6.800;2023-08-06T06:50:09;4.03;;;1.73;;
17604;SDS011;8921;50.964;6.800;2023-08-06T06:52:37;4.57;;;1.60;;
17604;SDS011;8921;50.964;6.800;2023-08-06T06:55:05;4.23;;;1.30;;
17604;SDS011;8921;50.964;6.800;2023-08-06T06:57:34;5.93;;;1.40;;
17604;SDS011;8921;50.964;6.800;2023-08-06T07:00:02;3.37;;;1.50;;
17604;SDS011;8921;50.964;6.800;2023-08-06T07:02:30;3.40;;;1.40;;
17604;SDS011;8921;50.964;6.800;2023-08-06T07:04:59;3.40;;;1.43;;
17604;SDS011;8921;50.964;6.800;2023-08-06T07:07:27;3.60;;;1.50;;
17604;SDS011;8921;50.964;6.800;2023-08-06T07:09:55;3.50;;;1.63;;
17604;SDS011;8921;50.964;6.800;2023-08-06T07:12:24;4.10;;;1.50;;
17604;SDS011;8921;50.964;6.800;2023-08-06T07:14:52;3.90;;;1.90;;
17604;SDS011;8921;50.964;6.800;2023-08-06T07:17:20;3.87;;;1.40;;
17604;SDS011;8921;50.964;6.800;2023-08-06T07:19:48;4.93;;;1.27;;
17604;SDS011;8921;50.964;6.800;2023-08-06T07:22:17;3.93;;;1.60;;
17604;SDS011;8921;50.964;6.800;2023-08-06T07:24:45;4.03;;;1.53;;
17604;SDS011;8921;50.964;6.800;2023-08-06T07:27:13;4.80;;;1.70;;
17604;SDS011;8921;50.964;6.800;2023-08-06T07:29:41;3.73;;;1.40;;
17604;SDS011;8921;50.964;6.800;2023-08-06T07:32:10;3.40;;;1.50;;
17604;SDS011;8921;50.964;6.800;2023-08-06T07:34:38;3.53;;;1.23;;
17604;SDS011;8921;50.964;6.800;2023-08-06T07:37:06;3.10;;;1.30;;
17604;SDS011;8921;50.964;6.800;2023-08-06T07:39:35;4.20;;;1.93;;
17604;SDS011;8921;50.964;6.800;2023-08-06T07:42:03;3.03;;;1.13;;
17604;SDS011;8921;50.964;6.800;2023-08-06T07:44:31;6.43;;;2.20;;
17604;SDS011;8921;50.964;6.800;2023-08-06T07:47:00;4.00;;;1.87;;
17604;SDS011;8921;50.964;6.800;2023-08-06T07:49:28;3.57;;;1.20;;
17604;SDS011;8921;50.964;6.800;2023-08-06T07:51:56;2.90;;;1.00;;
17604;SDS011;8921;50.964;6.800;2023-08-06T07:54:24;3.07;;;1.10;;
17604;SDS011;8921;50.964;6.800;2023-08-06T07:56:53;4.93;;;2.30;;
17604;SDS011;8921;50.964;6.800;2023-08-06T07:59:21;3.97;;;1.40;;
17604;SDS011;8921;50.964;6.800;2023-08-06T08:01:49;3.80;;;1.57;;
17604;SDS011;8921;50.964;6.800;2023-08-06T08:04:18;3.30;;;1.30;;
17604;SDS011;8921;50.964;6.800;2023-08-06T08:06:46;4.90;;;2.10;;
17604;SDS011;8921;50.964;6.800;2023-08-06T08:09:14;4.03;;;1.10;;
17604;SDS011;8921;50.964;6.800;2023-08-06T08:11:42;3.10;;;1.20;;
17604;SDS011;8921;50.964;6.800;2023-08-06T08:14:11;4.10;;;1.20;;
17604;SDS011;8921;50.964;6.800;2023-08-06T08:16:39;4.07;;;1.40;;
17604;SDS011;8921;50.964;6.800;2023-08-06T08:19:07;3.50;;;1.20;;
17604;SDS011;8921;50.964;6.800;2023-08-06T08:21:35;3.40;;;1.30;;
17604;SDS011;8921;50.964;6.800;2023-08-06T08:24:04;5.80;;;1.50;;
17604;SDS011;8921;50.964;6.800;2023-08-06T08:26:32;4.73;;;1.20;;
17604;SDS011;8921;50.964;6.800;2023-08-06T08:29:00;3.00;;;1.07;;
17604;SDS011;8921;50.964;6.800;2023-08-06T08:31:28;3.90;;;1.30;;
17604;SDS011;8921;50.964;6.800;2023-08-06T08:33:57;4.17;;;1.67;;
17604;SDS011;8921;50.964;6.800;2023-08-06T08:36:25;4.93;;;2.00;;
17604;SDS011;8921;50.964;6.800;2023-08-06T08:38:54;3.73;;;1.37;;
17604;SDS011;8921;50.964;6.800;2023-08-06T08:41:27;4.70;;;1.77;;
17604;SDS011;8921;50.964;6.800;2023-08-06T08:43:53;3.50;;;1.30;;
17604;SDS011;8921;50.964;6.800;2023-08-06T08:46:21;4.13;;;1.10;;
17604;SDS011;8921;50.964;6.800;2023-08-06T08:48:50;3.83;;;1.20;;
17604;SDS011;8921;50.964;6.800;2023-08-06T08:51:18;3.00;;;1.00;;
17604;SDS011;8921;50.964;6.800;2023-08-06T08:53:46;4.07;;;1.50;;
17604;SDS011;8921;50.964;6.800;2023-08-06T08:56:14;3.27;;;1.13;;
17604;SDS011;8921;50.964;6.800;2023-08-06T08:58:43;3.20;;;1.20;;
17604;SDS011;8921;50.964;6.800;2023-08-06T09:01:11;3.50;;;1.40;;
17604;SDS011;8921;50.964;6.800;2023-08-06T09:03:39;4.17;;;1.40;;
17604;SDS011;8921;50.964;6.800;2023-08-06T09:06:07;3.73;;;1.50;;
17604;SDS011;8921;50.964;6.800;2023-08-06T09:08:43;3.93;;;1.67;;
17604;SDS011;8921;50.964;6.800;2023-08-06T09:11:10;3.90;;;2.00;;
17604;SDS011;8921;50.964;6.800;2023-08-06T09:13:38;5.50;;;2.50;;
17604;SDS011;8921;50.964;6.800;2023-08-06T09:16:06;4.00;;;1.70;;
17604;SDS011;8921;50.964;6.800;2023-08-06T09:18:35;5.50;;;2.87;;
17604;SDS011;8921;50.964;6.800;2023-08-06T09:21:03;4.90;;;1.97;;
17604;SDS011;8921;50.964;6.800;2023-08-06T09:23:31;4.40;;;2.50;;
17604;SDS011;8921;50.964;6.800;2023-08-06T09:25:59;6.10;;;4.00;;
17604;SDS011;8921;50.964;6.800;2023-08-06T09:28:36;5.30;;;2.90;;
17604;SDS011;8921;50.964;6.800;2023-08-06T09:31:02;8.20;;;4.33;;
17604;SDS011;8921;50.964;6.800;2023-08-06T09:33:30;8.93;;;5.03;;
17604;SDS011;8921;50.964;6.800;2023-08-06T09:36:06;6.30;;;3.77;;
17604;SDS011;8921;50.964;6.800;2023-08-06T09:38:27;5.60;;;3.60;;
17604;SDS011;8921;50.964;6.800;2023-08-06T09:40:55;6.07;;;3.23;;
17604;SDS011;8921;50.964;6.800;2023-08-06T09:43:23;5.77;;;2.70;;
17604;SDS011;8921;50.964;6.800;2023-08-06T09:45:52;4.97;;;2.93;;
17604;SDS011;8921;50.964;6.800;2023-08-06T09:48:20;5.83;;;3.00;;
17604;SDS011;8921;50.964;6.800;2023-08-06T09:50:48;4.80;;;2.30;;
17604;SDS011;8921;50.964;6.800;2023-08-06T09:53:16;4.33;;;1.97;;
17604;SDS011;8921;50.964;6.800;2023-08-06T09:55:45;5.20;;;1.53;;
17604;SDS011;8921;50.964;6.800;2023-08-06T09:58:13;5.67;;;1.47;;
17604;SDS011;8921;50.964;6.800;2023-08-06T10:00:41;3.90;;;1.20;;
17604;SDS011;8921;50.964;6.800;2023-08-06T10:03:09;3.60;;;1.00;;
17604;SDS011;8921;50.964;6.800;2023-08-06T10:05:38;3.47;;;1.00;;
17604;SDS011;8921;50.964;6.800;2023-08-06T10:08:06;3.20;;;1.00;;
17604;SDS011;8921;50.964;6.800;2023-08-06T10:10:34;3.10;;;1.00;;
17604;SDS011;8921;50.964;6.800;2023-08-06T10:13:02;3.10;;;1.00;;
17604;SDS011;8921;50.964;6.800;2023-08-06T10:15:31;3.90;;;1.13;;
17604;SDS011;8921;50.964;6.800;2023-08-06T10:17:59;4.03;;;1.50;;
17604;SDS011;8921;50.964;6.800;2023-08-06T10:20:32;4.30;;;1.20;;
17604;SDS011;8921;50.964;6.800;2023-08-06T10:23:04;3.43;;;1.23;;
17604;SDS011;8921;50.964;6.800;2023-08-06T10:25:30;3.40;;;0.90;;
17604;SDS011;8921;50.964;6.800;2023-08-06T10:27:58;3.67;;;1.30;;
17604;SDS011;8921;50.964;6.800;2023-08-06T10:30:27;3.50;;;1.10;;
17604;SDS011;8921;50.964;6.800;2023-08-06T10:32:58;3.30;;;1.20;;
17604;SDS011;8921;50.964;6.800;2023-08-06T10:38:14;3.93;;;1.47;;
17604;SDS011;8921;50.964;6.800;2023-08-06T10:40:41;4.70;;;1.90;;
17604;SDS011;8921;50.964;6.800;2023-08-06T10:43:11;5.43;;;2.30;;
17604;SDS011;8921;50.964;6.800;2023-08-06T10:45:37;4.53;;;1.83;;
17604;SDS011;8921;50.964;6.800;2023-08-06T10:48:05;4.43;;;1.70;;
17604;SDS011;8921;50.964;6.800;2023-08-06T10:50:33;4.33;;;1.97;;
17604;SDS011;8921;50.964;6.800;2023-08-06T10:53:04;6.10;;;2.10;;
17604;SDS011;8921;50.964;6.800;2023-08-06T10:55:32;4.40;;;1.80;;
17604;SDS011;8921;50.964;6.800;2023-08-06T10:58:01;4.67;;;1.83;;
17604;SDS011;8921;50.964;6.800;2023-08-06T11:00:29;5.47;;;2.10;;
17604;SDS011;8921;50.964;6.800;2023-08-06T11:02:57;5.00;;;2.33;;
17604;SDS011;8921;50.964;6.800;2023-08-06T11:05:25;9.27;;;3.13;;
17604;SDS011;8921;50.964;6.800;2023-08-06T11:07:54;7.10;;;3.67;;
17604;SDS011;8921;50.964;6.800;2023-08-06T11:10:22;7.80;;;4.10;;
17604;SDS011;8921;50.964;6.800;2023-08-06T11:12:50;12.33;;;6.90;;
17604;SDS011;8921;50.964;6.800;2023-08-06T11:15:20;9.53;;;4.30;;
17604;SDS011;8921;50.964;6.800;2023-08-06T11:17:47;8.60;;;3.33;;
17604;SDS011;8921;50.964;6.800;2023-08-06T11:20:15;5.20;;;2.43;;
17604;SDS011;8921;50.964;6.800;2023-08-06T11:22:43;6.67;;;2.50;;
17604;SDS011;8921;50.964;6.800;2023-08-06T11:25:12;9.23;;;2.83;;
17604;SDS011;8921;50.964;6.800;2023-08-06T11:27:40;7.13;;;2.43;;
17604;SDS011;8921;50.964;6.800;2023-08-06T11:30:10;5.77;;;3.20;;
17604;SDS011;8921;50.964;6.800;2023-08-06T11:32:46;4.97;;;2.17;;
17604;SDS011;8921;50.964;6.800;2023-08-06T11:35:17;6.03;;;2.77;;
17604;SDS011;8921;50.964;6.800;2023-08-06T11:37:45;12.23;;;2.00;;
17604;SDS011;8921;50.964;6.800;2023-08-06T11:40:16;6.17;;;2.70;;
17604;SDS011;8921;50.964;6.800;2023-08-06T11:42:45;8.70;;;2.40;;
17604;SDS011;8921;50.964;6.800;2023-08-06T11:45:13;5.37;;;2.70;;
17604;SDS011;8921;50.964;6.800;2023-08-06T11:47:41;5.13;;;1.80;;
17604;SDS011;8921;50.964;6.800;2023-08-06T11:50:09;6.60;;;2.27;;
17604;SDS011;8921;50.964;6.800;2023-08-06T11:52:38;9.97;;;2.40;;
17604;SDS011;8921;50.964;6.800;2023-08-06T11:55:06;4.50;;;2.17;;
17604;SDS011;8921;50.964;6.800;2023-08-06T11:57:34;6.27;;;1.63;;
17604;SDS011;8921;50.964;6.800;2023-08-06T12:00:05;7.57;;;2.23;;
17604;SDS011;8921;50.964;6.800;2023-08-06T12:02:34;4.70;;;1.50;;
17604;SDS011;8921;50.964;6.800;2023-08-06T12:05:03;6.03;;;2.50;;
17604;SDS011;8921;50.964;6.800;2023-08-06T12:07:33;5.67;;;1.50;;
17604;SDS011;8921;50.964;6.800;2023-08-06T12:10:01;7.10;;;3.20;;
17604;SDS011;8921;50.964;6.800;2023-08-06T12:12:29;9.90;;;5.03;;
17604;SDS011;8921;50.964;6.800;2023-08-06T12:14:58;7.57;;;2.83;;
17604;SDS011;8921;50.964;6.800;2023-08-06T12:17:26;8.50;;;1.80;;
17604;SDS011;8921;50.964;6.800;2023-08-06T12:19:54;5.83;;;1.60;;
17604;SDS011;8921;50.964;6.800;2023-08-06T12:22:22;3.67;;;1.40;;
17604;SDS011;8921;50.964;6.800;2023-08-06T12:24:51;5.30;;;1.77;;
17604;SDS011;8921;50.964;6.800;2023-08-06T12:27:19;5.50;;;1.73;;
17604;SDS011;8921;50.964;6.800;2023-08-06T12:29:47;6.77;;;2.00;;
17604;SDS011;8921;50.964;6.800;2023-08-06T12:32:15;4.53;;;1.70;;
17604;SDS011;8921;50.964;6.800;2023-08-06T12:34:44;6.83;;;1.50;;
17604;SDS011;8921;50.964;6.800;2023-08-06T12:37:12;9.13;;;2.27;;
17604;SDS011;8921;50.964;6.800;2023-08-06T12:39:40;5.47;;;2.00;;
17604;SDS011;8921;50.964;6.800;2023-08-06T12:42:08;5.30;;;2.20;;
17604;SDS011;8921;50.964;6.800;2023-08-06T12:44:37;6.00;;;2.37;;
17604;SDS011;8921;50.964;6.800;2023-08-06T12:47:06;7.73;;;2.40;;
17604;SDS011;8921;50.964;6.800;2023-08-06T12:49:33;10.43;;;3.23;;
17604;SDS011;8921;50.964;6.800;2023-08-06T12:52:01;7.73;;;2.50;;
17604;SDS011;8921;50.964;6.800;2023-08-06T12:54:30;5.17;;;2.33;;
17604;SDS011;8921;50.964;6.800;2023-08-06T12:56:58;10.20;;;3.03;;
17604;SDS011;8921;50.964;6.800;2023-08-06T12:59:26;8.23;;;2.90;;
17604;SDS011;8921;50.964;6.800;2023-08-06T13:01:55;7.17;;;2.90;;
17604;SDS011;8921;50.964;6.800;2023-08-06T13:04:23;6.00;;;2.67;;
17604;SDS011;8921;50.964;6.800;2023-08-06T13:06:51;5.13;;;2.10;;
17604;SDS011;8921;50.964;6.800;2023-08-06T13:09:19;6.03;;;2.00;;
17604;SDS011;8921;50.964;6.800;2023-08-06T13:11:48;6.83;;;2.47;;
17604;SDS011;8921;50.964;6.800;2023-08-06T13:14:16;5.43;;;2.20;;
17604;SDS011;8921;50.964;6.800;2023-08-06T13:16:44;5.00;;;2.13;;
17604;SDS011;8921;50.964;6.800;2023-08-06T13:19:13;5.90;;;2.40;;
17604;SDS011;8921;50.964;6.800;2023-08-06T13:24:09;5.23;;;2.53;;
17604;SDS011;8921;50.964;6.800;2023-08-06T13:26:38;6.10;;;2.73;;
17604;SDS011;8921;50.964;6.800;2023-08-06T13:29:06;6.93;;;3.40;;
17604;SDS011;8921;50.964;6.800;2023-08-06T13:31:34;5.87;;;3.13;;
17604;SDS011;8921;50.964;6.800;2023-08-06T13:34:02;6.23;;;2.70;;
17604;SDS011;8921;50.964;6.800;2023-08-06T13:36:30;5.67;;;3.20;;
17604;SDS011;8921;50.964;6.800;2023-08-06T13:38:59;6.30;;;2.93;;
17604;SDS011;8921;50.964;6.800;2023-08-06T13:41:27;7.70;;;3.00;;
17604;SDS011;8921;50.964;6.800;2023-08-06T13:43:55;6.67;;;2.90;;
17604;SDS011;8921;50.964;6.800;2023-08-06T13:46:23;8.93;;;3.47;;
17604;SDS011;8921;50.964;6.800;2023-08-06T13:48:52;7.10;;;3.40;;
17604;SDS011;8921;50.964;6.800;2023-08-06T13:51:20;9.07;;;4.33;;
17604;SDS011;8921;50.964;6.800;2023-08-06T13:53:48;8.73;;;3.00;;
17604;SDS011;8921;50.964;6.800;2023-08-06T13:56:16;7.53;;;3.20;;
17604;SDS011;8921;50.964;6.800;2023-08-06T13:58:45;7.83;;;2.77;;
17604;SDS011;8921;50.964;6.800;2023-08-06T14:01:13;5.90;;;2.37;;
17604;SDS011;8921;50.964;6.800;2023-08-06T14:03:41;7.47;;;2.10;;
17604;SDS011;8921;50.964;6.800;2023-08-06T14:06:10;5.23;;;1.90;;
17604;SDS011;8921;50.964;6.800;2023-08-06T14:08:38;4.80;;;1.87;;
17604;SDS011;8921;50.964;6.800;2023-08-06T14:11:06;5.20;;;1.77;;
17604;SDS011;8921;50.964;6.800;2023-08-06T14:13:34;5.50;;;2.17;;
17604;SDS011;8921;50.964;6.800;2023-08-06T14:16:03;6.63;;;1.70;;
17604;SDS011;8921;50.964;6.800;2023-08-06T14:18:31;5.67;;;2.00;;
17604;SDS011;8921;50.964;6.800;2023-08-06T14:20:59;4.73;;;1.37;;
17604;SDS011;8921;50.964;6.800;2023-08-06T14:23:27;7.77;;;1.63;;
17604;SDS011;8921;50.964;6.800;2023-08-06T14:25:56;5.60;;;1.70;;
17604;SDS011;8921;50.964;6.800;2023-08-06T14:28:24;6.17;;;1.57;;
17604;SDS011;8921;50.964;6.800;2023-08-06T14:30:52;5.00;;;1.40;;
17604;SDS011;8921;50.964;6.800;2023-08-06T14:33:20;4.53;;;1.73;;
17604;SDS011;8921;50.964;6.800;2023-08-06T14:35:49;5.20;;;1.70;;
17604;SDS011;8921;50.964;6.800;2023-08-06T14:38:17;5.90;;;1.90;;
17604;SDS011;8921;50.964;6.800;2023-08-06T14:40:45;6.23;;;1.50;;
17604;SDS011;8921;50.964;6.800;2023-08-06T14:43:14;7.17;;;2.67;;
17604;SDS011;8921;50.964;6.800;2023-08-06T14:45:42;7.17;;;1.57;;
17604;SDS011;8921;50.964;6.800;2023-08-06T14:48:10;6.30;;;1.30;;
17604;SDS011;8921;50.964;6.800;2023-08-06T14:50:38;7.33;;;1.53;;
17604;SDS011;8921;50.964;6.800;2023-08-06T14:53:07;6.60;;;1.43;;
17604;SDS011;8921;50.964;6.800;2023-08-06T14:55:35;4.70;;;1.20;;
17604;SDS011;8921;50.964;6.800;2023-08-06T14:58:03;5.97;;;1.30;;
17604;SDS011;8921;50.964;6.800;2023-08-06T15:00:31;3.73;;;1.20;;
17604;SDS011;8921;50.964;6.800;2023-08-06T15:03:00;7.83;;;1.63;;
17604;SDS011;8921;50.964;6.800;2023-08-06T15:05:28;5.87;;;1.77;;
17604;SDS011;8921;50.964;6.800;2023-08-06T15:07:56;3.60;;;1.23;;
17604;SDS011;8921;50.964;6.800;2023-08-06T15:10:24;4.77;;;1.40;;
17604;SDS011;8921;50.964;6.800;2023-08-06T15:12:53;4.30;;;1.70;;
17604;SDS011;8921;50.964;6.800;2023-08-06T15:15:21;4.13;;;1.40;;